Time;durP1;ratioP1;P1;durP2;ratioP2;P2;SDS_P1;SDS_P2;PMS_P1;PMS_P2;Temp;Humidity;BMP_temperature;BMP_pressure;BME280_temperature;BME280_humidity;BME280_pressure;Samples;Min_cycle;Max_cycle;Signal;HPM_P1;HPM_P2
2021/03/25 00:01:13;;;;;;;;;;;;;;;19.26;34.25;100873.72;5116586;28;820;-54
2021/03/25 00:03:38;;;;;;;;;;;;;;;19.85;33.07;100888.34;5116196;28;762;-51
2021/03/25 00:06:04;;;;;;;;;;;;;;;20.55;32.04;100886.09;5116557;28;977;-57
2021/03/25 00:08:29;;;;;;;;;;;;;;;19.93;32.96;100887.69;5120104;28;846;-56
2021/03/25 00:10:54;;;;;;;;;;;;;;;19.91;32.82;100887.19;5119731;28;874;-55
2021/03/25 00:13:20;;;;;;;;;;;;;;;19.40;33.89;100894.00;5119953;28;1915;-53
2021/03/25 00:15:46;;;;;;;;;;;;;;;19.72;33.29;100895.34;5119977;28;799;-57
2021/03/25 00:18:12;;;;;;;;;;;;;;;20.49;32.09;100894.44;5118754;28;850;-55
2021/03/25 00:20:37;;;;;;;;;;;;;;;19.97;33.00;100885.19;5119701;28;822;-54
2021/03/25 00:23:03;;;;;;;;;;;;;;;19.88;32.87;100876.72;5119495;28;922;-56
2021/03/25 00:25:29;;;;;;;;;;;;;;;19.50;33.78;100873.78;5119507;28;759;-53
2021/03/25 00:27:55;;;;;;;;;;;;;;;19.77;33.50;100875.19;5117911;28;855;-57
2021/03/25 00:30:24;;;;;;;;;;;;;;;20.38;32.02;100876.38;5119736;28;751;-51
2021/03/25 00:32:50;;;;;;;;;;;;;;;20.08;32.82;100875.66;5119109;28;1971;-54
2021/03/25 00:35:15;;;;;;;;;;;;;;;19.98;32.71;100875.78;5119370;28;802;-53
2021/03/25 00:37:41;;;;;;;;;;;;;;;19.41;33.85;100865.31;5135236;27;953;-55
2021/03/25 00:40:07;;;;;;;;;;;;;;;19.43;33.96;100865.88;5140072;27;767;-54
2021/03/25 00:42:32;;;;;;;;;;;;;;;20.18;32.41;100870.00;5138249;27;862;-55
2021/03/25 00:44:58;;;;;;;;;;;;;;;20.28;32.23;100868.22;5140574;27;1120;-58
2021/03/25 00:47:23;;;;;;;;;;;;;;;19.98;33.03;100873.84;5139499;27;762;-55
2021/03/25 00:49:49;;;;;;;;;;;;;;;19.68;33.48;100874.97;5139708;27;1137;-57
2021/03/25 00:52:14;;;;;;;;;;;;;;;19.45;33.84;100871.09;5138236;27;1975;-57
2021/03/25 00:54:39;;;;;;;;;;;;;;;20.31;32.23;100873.16;5121294;27;1211;-58
2021/03/25 00:57:05;;;;;;;;;;;;;;;20.04;32.77;100873.78;5139711;27;759;-55
2021/03/25 00:59:31;;;;;;;;;;;;;;;19.85;33.01;100880.06;5138488;27;1418;-56
2021/03/25 01:01:56;;;;;;;;;;;;;;;19.39;33.85;100878.59;5139102;27;794;-57
2021/03/25 01:04:22;;;;;;;;;;;;;;;19.34;33.94;100880.56;5139845;27;820;-58
2021/03/25 01:06:47;;;;;;;;;;;;;;;20.25;32.48;100869.66;5139279;27;956;-58
2021/03/25 01:09:20;;;;;;;;;;;;;;;20.24;32.17;100876.28;5139282;27;832;-58
2021/03/25 01:11:45;;;;;;;;;;;;;;;19.91;32.89;100872.53;5121269;27;1902;-56
2021/03/25 01:14:11;;;;;;;;;;;;;;;19.62;33.60;100874.22;5137834;27;736;-57
2021/03/25 01:16:38;;;;;;;;;;;;;;;19.11;34.47;100875.53;5138837;27;798;-55
2021/03/25 01:19:10;;;;;;;;;;;;;;;19.94;32.97;100871.97;5139022;27;743;-54
2021/03/25 01:21:37;;;;;;;;;;;;;;;20.65;31.59;100866.59;5139377;27;1019;-54
2021/03/25 01:24:04;;;;;;;;;;;;;;;20.09;32.56;100870.94;5137765;27;859;-57
2021/03/25 01:26:29;;;;;;;;;;;;;;;20.00;32.68;100862.50;5139295;27;886;-53
2021/03/25 01:28:59;;;;;;;;;;;;;;;19.28;34.05;100863.25;5138077;27;1258;-55
2021/03/25 01:31:27;;;;;;;;;;;;;;;19.55;33.77;100861.88;5130737;27;1909;-55
2021/03/25 01:33:53;;;;;;;;;;;;;;;20.32;32.21;100870.09;5117514;28;1193;-57
2021/03/25 01:36:20;;;;;;;;;;;;;;;19.93;32.69;100875.84;5116650;28;1236;-54
2021/03/25 01:38:45;;;;;;;;;;;;;;;19.83;33.27;100880.34;5117285;28;1284;-58
2021/03/25 01:41:11;;;;;;;;;;;;;;;19.53;33.58;100880.66;5118361;28;771;-58
2021/03/25 01:43:37;;;;;;;;;;;;;;;19.31;34.08;100890.25;5118015;28;787;-53
2021/03/25 01:46:23;;;;;;;;;;;;;;;20.09;32.53;100882.84;5116912;28;1283;-55
2021/03/25 01:48:51;;;;;;;;;;;;;;;19.98;32.66;100890.41;5100318;28;1276;-54
2021/03/25 01:51:30;;;;;;;;;;;;;;;19.85;33.08;100887.53;5116257;28;1406;-55
2021/03/25 01:54:02;;;;;;;;;;;;;;;19.34;34.02;100900.69;5117762;28;851;-56
2021/03/25 01:56:34;;;;;;;;;;;;;;;19.74;33.46;100893.13;5116935;28;1307;-57
2021/03/25 01:59:07;;;;;;;;;;;;;;;20.49;31.89;100890.88;5118226;28;834;-59
2021/03/25 02:01:36;;;;;;;;;;;;;;;19.88;33.04;100893.28;5116760;28;1128;-57
2021/03/25 02:04:01;;;;;;;;;;;;;;;19.80;33.02;100891.16;5117849;28;863;-56
2021/03/25 02:06:30;;;;;;;;;;;;;;;19.24;34.30;100890.56;5116440;28;1307;-57
2021/03/25 02:08:56;;;;;;;;;;;;;;;19.67;33.31;100887.97;5116162;28;1393;-56
2021/03/25 02:11:33;;;;;;;;;;;;;;;20.46;32.20;100897.00;5117434;28;1967;-53
2021/03/25 02:14:02;;;;;;;;;;;;;;;19.96;32.79;100895.41;5099542;28;1398;-59
2021/03/25 02:16:33;;;;;;;;;;;;;;;19.80;33.10;100891.16;5116358;28;1408;-55
2021/03/25 02:19:21;;;;;;;;;;;;;;;19.19;34.19;100887.03;5115770;28;1095;-56
2021/03/25 02:22:06;;;;;;;;;;;;;;;19.69;33.51;100889.59;5107783;27;1113;-58
2021/03/25 02:24:51;;;;;;;;;;;;;;;20.35;32.22;100888.00;5136528;27;1330;-58
2021/03/25 02:27:37;;;;;;;;;;;;;;;19.91;33.03;100889.94;5136693;27;1405;-58
2021/03/25 02:30:04;;;;;;;;;;;;;;;19.64;33.56;100887.69;5135506;27;868;-54
2021/03/25 02:32:38;;;;;;;;;;;;;;;19.17;34.21;100892.00;5103605;28;1913;-51
2021/03/25 02:35:22;;;;;;;;;;;;;;;20.16;32.32;100883.28;5100671;28;1211;-55
2021/03/25 02:37:54;;;;;;;;;;;;;;;20.67;31.57;100886.47;5115589;28;2086;-59
2021/03/25 02:40:26;;;;;;;;;;;;;;;20.04;32.79;100880.13;5115810;28;822;-57
2021/03/25 02:42:59;;;;;;;;;;;;;;;19.71;33.42;100892.88;5100137;28;1129;-58
2021/03/25 02:45:25;;;;;;;;;;;;;;;19.09;34.24;100887.94;5098919;28;1243;-57
2021/03/25 02:47:53;;;;;;;;;;;;;;;19.93;32.82;100884.94;5099148;28;1236;-55
2021/03/25 02:50:26;;;;;;;;;;;;;;;20.44;31.84;100891.78;5117027;28;991;-58
2021/03/25 02:52:53;;;;;;;;;;;;;;;19.85;32.88;100887.53;5098419;28;1984;-57
2021/03/25 02:55:20;;;;;;;;;;;;;;;19.76;33.11;100879.84;5098653;28;1393;-58
2021/03/25 02:57:49;;;;;;;;;;;;;;;19.27;33.91;100883.66;5117031;28;823;-57
2021/03/25 03:00:26;;;;;;;;;;;;;;;20.13;32.44;100883.88;5115535;28;1167;-57
2021/03/25 03:02:54;;;;;;;;;;;;;;;20.46;31.69;100892.28;5115129;28;921;-57
2021/03/25 03:05:52;;;;;;;;;;;;;;;19.88;33.11;100892.44;5071756;28;1193;-54
2021/03/25 03:08:22;;;;;;;;;;;;;;;19.62;33.30;100896.28;5098661;28;1201;-55
2021/03/25 03:10:52;;;;;;;;;;;;;;;19.44;34.01;100899.78;5115579;28;1249;-57
2021/03/25 03:13:17;;;;;;;;;;;;;;;20.14;32.35;100891.03;5115696;28;1902;-51
2021/03/25 03:15:45;;;;;;;;;;;;;;;20.09;32.39;100898.56;5098078;28;1192;-50
2021/03/25 03:18:27;;;;;;;;;;;;;;;19.99;32.61;100905.84;5099503;28;1319;-58
2021/03/25 03:21:19;;;;;;;;;;;;;;;19.41;33.73;100903.13;5099374;28;1375;-57
2021/03/25 03:23:54;;;;;;;;;;;;;;;19.67;33.40;100900.94;5116196;28;827;-57
2021/03/25 03:26:28;;;;;;;;;;;;;;;20.32;32.22;100914.28;5099709;28;1193;-58
2021/03/25 03:28:55;;;;;;;;;;;;;;;19.91;33.01;100914.78;5116455;28;802;-57
2021/03/25 03:31:30;;;;;;;;;;;;;;;19.78;32.89;100921.78;5115228;28;1989;-54
2021/03/25 03:34:08;;;;;;;;;;;;;;;19.15;34.15;100923.44;5099961;28;1269;-58
2021/03/25 03:36:34;;;;;;;;;;;;;;;20.06;32.71;100916.53;5121106;28;946;-54
2021/03/25 03:39:04;;;;;;;;;;;;;;;20.40;31.91;100917.50;5135817;28;850;-57
2021/03/25 03:41:31;;;;;;;;;;;;;;;19.97;32.60;100918.31;5121105;27;1129;-54
2021/03/25 03:44:00;;;;;;;;;;;;;;;19.66;33.35;100924.91;5122917;27;1347;-58
2021/03/25 03:46:27;;;;;;;;;;;;;;;19.18;34.24;100913.78;5123285;27;1286;-57
2021/03/25 03:49:12;;;;;;;;;;;;;;;19.96;32.62;100922.16;5140119;27;1167;-57
2021/03/25 03:51:44;;;;;;;;;;;;;;;20.65;31.38;100928.22;5138852;27;1974;-54
2021/03/25 03:54:10;;;;;;;;;;;;;;;21.16;30.67;100925.84;5123024;27;1284;-56
2021/03/25 03:56:38;;;;;;;;;;;;;;;20.51;31.79;100930.09;5122751;27;1255;-56
2021/03/25 03:59:11;;;;;;;;;;;;;;;20.18;32.42;100925.22;5122993;27;1400;-57
2021/03/25 04:01:38;;;;;;;;;;;;;;;19.59;33.48;100935.47;5122678;27;1140;-60
2021/03/25 04:04:11;;;;;;;;;;;;;;;19.10;34.44;100934.50;5123348;27;1258;-57
2021/03/25 04:06:56;;;;;;;;;;;;;;;20.10;32.43;100938.84;5124755;27;1128;-57
2021/03/25 04:09:47;;;;;;;;;;;;;;;20.22;32.10;100947.56;5125925;27;1300;-50
2021/03/25 04:12:29;;;;;;;;;;;;;;;19.96;32.81;100939.56;5139480;27;1909;-59
2021/03/25 04:14:57;;;;;;;;;;;;;;;19.56;33.38;100941.59;5138667;27;897;-63
2021/03/25 04:17:32;;;;;;;;;;;;;;;19.48;33.92;100940.25;5123187;27;1543;-63
2021/03/25 04:20:06;;;;;;;;;;;;;;;20.38;32.10;100934.38;5139124;27;1491;-64
2021/03/25 04:22:58;;;;;;;;;;;;;;;20.03;32.35;100933.69;5099821;27;1089;-62
2021/03/25 04:25:39;;;;;;;;;;;;;;;20.03;32.54;100932.88;5138948;27;1100;-63
2021/03/25 04:28:16;;;;;;;;;;;;;;;19.51;33.54;100940.81;5140315;27;830;-62
2021/03/25 04:30:44;;;;;;;;;;;;;;;19.70;33.39;100936.22;5138536;27;1121;-64
2021/03/25 04:33:13;;;;;;;;;;;;;;;20.51;31.76;100933.66;5101295;28;1910;-61
2021/03/25 04:35:40;;;;;;;;;;;;;;;19.95;32.63;100931.56;5119394;28;833;-62
2021/03/25 04:38:05;;;;;;;;;;;;;;;19.91;32.85;100941.53;5117849;28;1002;-61
2021/03/25 04:40:33;;;;;;;;;;;;;;;19.61;33.23;100943.47;5119439;28;735;-60
2021/03/25 04:42:59;;;;;;;;;;;;;;;19.49;33.43;100936.41;5117714;28;1519;-62
2021/03/25 04:45:33;;;;;;;;;;;;;;;20.32;32.01;100941.09;5097806;28;941;-61
2021/03/25 04:48:00;;;;;;;;;;;;;;;20.02;32.35;100937.56;5116920;28;1021;-61
2021/03/25 04:50:30;;;;;;;;;;;;;;;20.02;32.59;100948.63;5116770;28;1137;-59
2021/03/25 04:53:00;;;;;;;;;;;;;;;19.55;33.33;100945.44;5125837;27;1980;-64
2021/03/25 04:55:25;;;;;;;;;;;;;;;19.65;33.35;100950.03;5119059;28;835;-60
2021/03/25 04:57:54;;;;;;;;;;;;;;;20.48;31.76;100944.47;5118842;28;867;-59
2021/03/25 05:00:39;;;;;;;;;;;;;;;19.96;32.51;100947.00;5117775;28;804;-60
2021/03/25 05:03:05;;;;;;;;;;;;;;;19.84;32.82;100952.94;5112868;28;1268;-59
2021/03/25 05:05:30;;;;;;;;;;;;;;;19.30;33.94;100944.53;5115338;27;1512;-56
2021/03/25 05:07:59;;;;;;;;;;;;;;;19.63;33.49;100947.59;5116045;28;1013;-59
2021/03/25 05:10:30;;;;;;;;;;;;;;;20.40;31.90;100947.88;5117952;27;1278;-60
2021/03/25 05:12:56;;;;;;;;;;;;;;;20.25;32.05;100951.66;5117807;28;1914;-61
2021/03/25 05:15:22;;;;;;;;;;;;;;;20.06;32.39;100955.16;5118702;28;791;-61
2021/03/25 05:18:06;;;;;;;;;;;;;;;19.56;33.40;100963.66;5117990;28;834;-62
2021/03/25 05:20:52;;;;;;;;;;;;;;;19.65;33.39;100969.34;5118923;28;756;-60
2021/03/25 05:23:23;;;;;;;;;;;;;;;20.43;31.96;100970.22;5093731;28;1086;-59
2021/03/25 05:25:57;;;;;;;;;;;;;;;20.08;32.30;100975.03;5098238;28;735;-62
2021/03/25 05:28:28;;;;;;;;;;;;;;;20.00;32.56;100978.44;5096116;28;865;-61
2021/03/25 05:30:54;;;;;;;;;;;;;;;19.39;33.65;100975.09;5081572;28;1182;-60
2021/03/25 05:33:20;;;;;;;;;;;;;;;19.67;33.08;100986.47;5118020;28;1902;-60
2021/03/25 05:35:49;;;;;;;;;;;;;;;20.48;31.83;100983.13;5116370;28;902;-60
2021/03/25 05:38:14;;;;;;;;;;;;;;;20.13;32.44;100986.03;5113469;28;978;-59
2021/03/25 05:40:51;;;;;;;;;;;;;;;19.97;32.49;100977.06;5117509;28;771;-59
2021/03/25 05:43:22;;;;;;;;;;;;;;;19.53;33.26;100979.94;5116116;28;751;-59
2021/03/25 05:46:14;;;;;;;;;;;;;;;19.93;33.00;100995.31;5117582;28;853;-60
2021/03/25 05:49:03;;;;;;;;;;;;;;;20.27;32.09;100988.06;5114616;28;1331;-59
2021/03/25 05:51:32;;;;;;;;;;;;;;;20.09;32.33;100990.50;5087562;28;1161;-58
2021/03/25 05:54:16;;;;;;;;;;;;;;;19.66;33.33;100993.88;5118034;28;798;-59
2021/03/25 05:56:47;;;;;;;;;;;;;;;19.09;34.16;101010.03;5115928;27;1276;-59
2021/03/25 05:59:14;;;;;;;;;;;;;;;20.25;32.44;101001.38;5123340;27;763;-57
2021/03/25 06:01:42;;;;;;;;;;;;;;;20.18;32.16;101012.75;5137289;27;763;-59
2021/03/25 06:04:14;;;;;;;;;;;;;;;19.98;32.55;101000.00;5131801;27;1452;-61
2021/03/25 06:06:58;;;;;;;;;;;;;;;19.70;33.06;101007.94;5117114;28;949;-59
2021/03/25 06:09:42;;;;;;;;;;;;;;;19.38;33.65;101009.28;5097569;28;823;-59
2021/03/25 06:12:36;;;;;;;;;;;;;;;20.35;32.03;101009.53;5096847;28;1910;-60
2021/03/25 06:15:12;;;;;;;;;;;;;;;20.07;32.27;101009.28;5095180;28;1471;-60
2021/03/25 06:17:37;;;;;;;;;;;;;;;20.08;32.57;101015.63;5097117;28;791;-62
2021/03/25 06:20:15;;;;;;;;;;;;;;;19.52;33.46;101022.41;5097221;28;814;-61
2021/03/25 06:22:43;;;;;;;;;;;;;;;19.58;33.25;101021.28;5112818;28;1005;-61
2021/03/25 06:25:12;;;;;;;;;;;;;;;20.28;32.24;101033.91;5117319;28;845;-62
2021/03/25 06:27:40;;;;;;;;;;;;;;;20.12;32.22;101027.75;5116542;28;843;-60
2021/03/25 06:30:10;;;;;;;;;;;;;;;20.04;32.52;101031.94;5117416;28;859;-60
2021/03/25 06:33:02;;;;;;;;;;;;;;;19.59;33.17;101032.03;5115927;28;1984;-60
2021/03/25 06:35:37;;;;;;;;;;;;;;;19.24;33.87;101038.63;5092781;28;1103;-60
2021/03/25 06:38:05;;;;;;;;;;;;;;;20.13;32.56;101032.97;5134682;27;946;-60
2021/03/25 06:40:37;;;;;;;;;;;;;;;20.25;32.00;101034.50;5136176;27;878;-59
2021/03/25 06:43:05;;;;;;;;;;;;;;;20.02;32.41;101031.41;5135859;27;796;-58
2021/03/25 06:45:32;;;;;;;;;;;;;;;19.59;33.31;101034.78;5137658;27;825;-61
2021/03/25 06:47:59;;;;;;;;;;;;;;;19.22;34.11;101046.34;5136485;27;838;-62
2021/03/25 06:50:36;;;;;;;;;;;;;;;20.16;32.25;101048.94;5135598;27;1144;-62
2021/03/25 06:53:20;;;;;;;;;;;;;;;20.20;32.28;101042.84;5135636;27;1914;-60
2021/03/25 06:55:46;;;;;;;;;;;;;;;20.08;32.30;101046.00;5137696;27;779;-60
2021/03/25 06:58:16;;;;;;;;;;;;;;;19.79;32.91;101044.84;5135714;27;834;-61
2021/03/25 07:00:51;;;;;;;;;;;;;;;19.17;33.79;101040.84;5136183;27;766;-63
2021/03/25 07:03:17;;;;;;;;;;;;;;;20.11;32.30;101051.75;5136246;27;766;-59
2021/03/25 07:05:45;;;;;;;;;;;;;;;20.78;30.86;101056.56;5135368;27;854;-60
2021/03/25 07:08:16;;;;;;;;;;;;;;;20.05;32.17;101058.44;5135658;27;956;-62
2021/03/25 07:10:42;;;;;;;;;;;;;;;20.04;32.39;101045.75;5135933;27;799;-62
2021/03/25 07:13:07;;;;;;;;;;;;;;;19.26;33.92;101061.19;5114543;27;1913;-53
2021/03/25 07:15:35;;;;;;;;;;;;;;;20.15;32.41;101063.84;5113554;28;1038;-54
2021/03/25 07:18:05;;;;;;;;;;;;;;;20.75;31.33;101065.47;5116841;28;811;-53
2021/03/25 07:20:35;;;;;;;;;;;;;;;20.14;32.15;101058.63;5115290;28;1224;-49
2021/03/25 07:23:05;;;;;;;;;;;;;;;19.92;32.43;101065.47;5133183;28;1017;-56
2021/03/25 07:25:31;;;;;;;;;;;;;;;19.17;33.96;101066.50;5137522;28;775;-57
2021/03/25 07:27:57;;;;;;;;;;;;;;;19.97;32.55;101062.63;5136748;28;783;-55
2021/03/25 07:30:23;;;;;;;;;;;;;;;20.59;31.41;101066.72;5135842;28;775;-55
2021/03/25 07:32:51;;;;;;;;;;;;;;;20.01;32.33;101073.94;5137308;27;1909;-48
2021/03/25 07:35:29;;;;;;;;;;;;;;;19.84;32.93;101074.34;5135484;28;850;-48
2021/03/25 07:37:55;;;;;;;;;;;;;;;19.18;33.79;101078.34;5135272;28;953;-49
2021/03/25 07:40:23;;;;;;;;;;;;;;;19.83;33.01;101072.69;5136067;28;1116;-51
2021/03/25 07:42:49;;;;;;;;;;;;;;;20.40;31.83;101070.25;5127429;28;1321;-54
2021/03/25 07:45:25;;;;;;;;;;;;;;;20.03;32.51;101071.69;5109923;28;1274;-49
2021/03/25 07:47:51;;;;;;;;;;;;;;;19.89;32.47;101071.53;5109593;28;1318;-49
2021/03/25 07:50:30;;;;;;;;;;;;;;;19.31;33.55;101084.06;5113975;28;1161;-50
2021/03/25 07:52:56;;;;;;;;;;;;;;;19.79;33.13;101077.97;5133756;28;1898;-46
2021/03/25 07:55:22;;;;;;;;;;;;;;;20.42;31.97;101087.34;5130038;28;775;-49
2021/03/25 07:57:49;;;;;;;;;;;;;;;20.12;32.35;101081.00;5114446;28;1282;-52
2021/03/25 08:00:14;;;;;;;;;;;;;;;20.07;32.54;101081.03;5108006;28;1196;-55
2021/03/25 08:02:40;;;;;;;;;;;;;;;19.43;33.61;101075.44;5095710;28;746;-53
2021/03/25 08:05:35;;;;;;;;;;;;;;;19.47;33.68;101072.94;5095473;28;770;-57
2021/03/25 08:08:02;;;;;;;;;;;;;;;20.54;31.79;101086.09;5104729;28;1449;-51
2021/03/25 08:10:35;;;;;;;;;;;;;;;20.08;32.43;101081.88;5114655;28;795;-51
2021/03/25 08:13:05;;;;;;;;;;;;;;;19.98;32.67;101085.56;5114669;28;1984;-51
2021/03/25 08:15:43;;;;;;;;;;;;;;;19.40;33.42;101080.69;5116167;28;755;-54
2021/03/25 08:18:26;;;;;;;;;;;;;;;19.36;33.85;101077.69;5114312;28;787;-50
2021/03/25 08:21:04;;;;;;;;;;;;;;;20.27;32.11;101077.28;5115862;28;1001;-50
2021/03/25 08:23:29;;;;;;;;;;;;;;;20.07;32.51;101064.47;5114957;28;899;-49
2021/03/25 08:25:57;;;;;;;;;;;;;;;19.94;32.69;101073.44;5115457;28;899;-60
2021/03/25 08:28:32;;;;;;;;;;;;;;;19.44;33.54;101073.50;5116818;28;871;-53
2021/03/25 08:30:57;;;;;;;;;;;;;;;19.80;32.76;101082.38;5119601;28;883;-52
2021/03/25 08:33:29;;;;;;;;;;;;;;;20.38;31.79;101082.69;5119021;28;1906;-51
2021/03/25 08:35:58;;;;;;;;;;;;;;;20.07;32.31;101075.53;5119252;28;993;-52
2021/03/25 08:38:33;;;;;;;;;;;;;;;19.83;32.96;101073.50;5118345;28;850;-50
2021/03/25 08:41:03;;;;;;;;;;;;;;;19.18;33.69;101086.59;5118862;28;763;-55
2021/03/25 08:43:29;;;;;;;;;;;;;;;19.86;32.93;101088.69;5118573;28;763;-61
2021/03/25 08:45:55;;;;;;;;;;;;;;;20.62;31.36;101078.03;5118286;28;830;-51
2021/03/25 08:48:27;;;;;;;;;;;;;;;20.13;32.38;101077.13;5118846;28;763;-54
2021/03/25 08:51:12;;;;;;;;;;;;;;;20.07;32.32;101071.94;5117504;28;1038;-54
2021/03/25 08:53:45;;;;;;;;;;;;;;;19.48;33.53;101072.63;5117744;28;1909;-49
2021/03/25 08:56:34;;;;;;;;;;;;;;;19.59;33.44;101072.59;5117606;28;878;-50
2021/03/25 08:59:00;;;;;;;;;;;;;;;20.55;31.71;101080.28;5090388;28;1296;-55
2021/03/25 09:01:37;;;;;;;;;;;;;;;20.14;32.36;101073.25;5117245;28;954;-50
2021/03/25 09:04:04;;;;;;;;;;;;;;;19.90;32.78;101075.94;5117544;28;818;-48
2021/03/25 09:06:31;;;;;;;;;;;;;;;19.32;33.74;101074.69;5117486;28;946;-59
2021/03/25 09:09:16;;;;;;;;;;;;;;;19.60;33.40;101088.84;5118816;28;862;-52
2021/03/25 09:11:42;;;;;;;;;;;;;;;20.46;31.75;101084.81;5117286;28;1909;-50
2021/03/25 09:14:07;;;;;;;;;;;;;;;20.14;32.50;101105.56;5117347;28;868;-50
2021/03/25 09:16:33;;;;;;;;;;;;;;;20.00;32.68;101095.19;5117548;28;866;-54
2021/03/25 09:18:59;;;;;;;;;;;;;;;19.53;33.38;101096.63;5117641;28;827;-62
2021/03/25 09:21:25;;;;;;;;;;;;;;;19.20;34.28;101089.94;5118001;28;1008;-52
2021/03/25 09:23:50;;;;;;;;;;;;;;;20.13;32.22;101103.91;5118711;28;803;-48
2021/03/25 09:26:16;;;;;;;;;;;;;;;20.39;32.08;101104.50;5118272;28;735;-56
2021/03/25 09:29:00;;;;;;;;;;;;;;;20.18;32.33;101098.34;5118278;28;771;-53
2021/03/25 09:31:26;;;;;;;;;;;;;;;19.69;33.32;101102.84;5118438;28;990;-52
2021/03/25 09:33:52;;;;;;;;;;;;;;;19.04;34.68;101101.03;5117102;28;1971;-52
2021/03/25 09:36:17;;;;;;;;;;;;;;;19.69;33.39;101105.59;5117620;28;886;-50
2021/03/25 09:38:51;;;;;;;;;;;;;;;20.61;31.71;101108.72;5116554;28;775;-51
2021/03/25 09:41:37;;;;;;;;;;;;;;;20.36;32.27;101105.09;5118029;28;732;-50
2021/03/25 09:44:09;;;;;;;;;;;;;;;20.25;32.22;101100.78;5103300;28;1275;-50
2021/03/25 09:46:40;;;;;;;;;;;;;;;19.39;34.01;101103.88;5118148;28;744;-60
2021/03/25 09:49:16;;;;;;;;;;;;;;;19.66;33.59;101107.00;5117973;28;854;-52
2021/03/25 09:51:42;;;;;;;;;;;;;;;20.66;31.50;101108.63;5115795;28;1968;-54
2021/03/25 09:54:24;;;;;;;;;;;;;;;20.21;32.09;101105.22;5116571;28;767;-51
2021/03/25 09:57:08;;;;;;;;;;;;;;;20.25;32.07;101095.25;5116894;28;755;-53
2021/03/25 09:59:50;;;;;;;;;;;;;;;19.35;33.58;101098.09;5118342;28;797;-54
2021/03/25 10:02:34;;;;;;;;;;;;;;;20.02;32.67;101111.47;5098702;28;835;-53
2021/03/25 10:05:35;;;;;;;;;;;;;;;20.95;30.93;101107.78;5116656;28;759;-53
2021/03/25 10:08:10;;;;;;;;;;;;;;;21.39;30.40;101114.94;5072647;28;1324;-61
2021/03/25 10:10:35;;;;;;;;;;;;;;;20.69;31.33;101105.31;5128583;27;1073;-51
2021/03/25 10:13:01;;;;;;;;;;;;;;;20.42;31.73;101108.63;5138216;27;1917;-53
2021/03/25 10:15:33;;;;;;;;;;;;;;;19.55;33.63;101108.19;5138393;27;751;-51
2021/03/25 10:18:02;;;;;;;;;;;;;;;19.66;33.52;101117.22;5137755;27;783;-62
2021/03/25 10:20:46;;;;;;;;;;;;;;;20.54;31.68;101120.09;5138157;27;842;-51
2021/03/25 10:23:16;;;;;;;;;;;;;;;20.23;32.38;101114.03;5137483;27;987;-52
2021/03/25 10:25:42;;;;;;;;;;;;;;;20.14;32.27;101119.38;5118865;27;1088;-49
2021/03/25 10:28:09;;;;;;;;;;;;;;;19.32;33.94;101112.44;5138033;27;732;-53
2021/03/25 10:30:36;;;;;;;;;;;;;;;19.81;33.12;101116.31;5136697;27;799;-49
2021/03/25 10:33:09;;;;;;;;;;;;;;;20.76;31.19;101116.84;5137854;27;1913;-49
2021/03/25 10:35:39;;;;;;;;;;;;;;;20.18;32.16;101112.97;5136545;27;1281;-57
2021/03/25 10:38:06;;;;;;;;;;;;;;;20.22;32.08;101115.97;5136065;27;977;-61
2021/03/25 10:40:33;;;;;;;;;;;;;;;19.54;33.59;101116.75;5136209;27;811;-48
2021/03/25 10:43:06;;;;;;;;;;;;;;;19.79;33.09;101119.34;5136767;27;763;-52
2021/03/25 10:45:32;;;;;;;;;;;;;;;20.63;31.44;101114.75;5135975;27;804;-53
2021/03/25 10:47:58;;;;;;;;;;;;;;;20.26;31.96;101110.69;5137783;27;752;-50
2021/03/25 10:50:28;;;;;;;;;;;;;;;20.34;31.94;101113.66;5136524;27;1169;-47
2021/03/25 10:52:53;;;;;;;;;;;;;;;19.64;33.16;101116.66;5135826;27;1914;-58
2021/03/25 10:55:27;;;;;;;;;;;;;;;19.43;33.48;101122.34;5136237;27;807;-56
2021/03/25 10:57:52;;;;;;;;;;;;;;;20.45;31.96;101119.06;5136174;27;747;-50
2021/03/25 11:00:35;;;;;;;;;;;;;;;20.67;31.18;101127.72;5136532;27;866;-49
2021/03/25 11:03:02;;;;;;;;;;;;;;;20.28;32.05;101136.91;5135944;27;867;-49
2021/03/25 11:05:28;;;;;;;;;;;;;;;19.77;33.10;101134.53;5137167;27;855;-52
2021/03/25 11:07:55;;;;;;;;;;;;;;;19.05;34.42;101135.72;5136597;27;952;-57
2021/03/25 11:10:24;;;;;;;;;;;;;;;20.25;32.10;101133.91;5137404;27;791;-57
2021/03/25 11:12:56;;;;;;;;;;;;;;;20.67;31.23;101140.69;5136986;27;1913;-57
2021/03/25 11:15:24;;;;;;;;;;;;;;;20.24;32.12;101133.06;5135897;27;1061;-52
2021/03/25 11:17:49;;;;;;;;;;;;;;;19.92;32.48;101131.69;5125821;28;885;-53
2021/03/25 11:20:16;;;;;;;;;;;;;;;19.08;34.26;101143.47;5116461;28;799;-56
2021/03/25 11:22:42;;;;;;;;;;;;;;;20.20;32.17;101139.47;5113115;28;998;-56
2021/03/25 11:25:10;;;;;;;;;;;;;;;20.69;31.31;101130.19;5135404;28;891;-59
2021/03/25 11:27:36;;;;;;;;;;;;;;;20.15;32.30;101130.13;5135762;28;835;-59
2021/03/25 11:30:06;;;;;;;;;;;;;;;19.86;32.60;101121.78;5135249;28;874;-56
2021/03/25 11:32:38;;;;;;;;;;;;;;;19.03;34.36;101132.44;5123457;28;1968;-58
2021/03/25 11:35:27;;;;;;;;;;;;;;;20.16;32.30;101126.25;5115066;28;882;-53
2021/03/25 11:37:52;;;;;;;;;;;;;;;20.28;31.79;101130.56;5122530;28;1592;-51
2021/03/25 11:40:20;;;;;;;;;;;;;;;20.21;32.34;101121.78;5136866;28;795;-49
2021/03/25 11:42:47;;;;;;;;;;;;;;;20.44;32.31;101128.47;5133528;27;838;-45
2021/03/25 11:45:31;;;;;;;;;;;;;;;20.27;32.16;101135.28;5116241;28;818;-55
2021/03/25 11:47:56;;;;;;;;;;;;;;;20.96;30.92;101121.31;5116263;28;870;-53
2021/03/25 11:50:22;;;;;;;;;;;;;;;21.03;30.73;101123.72;5116346;28;1131;-46
2021/03/25 11:52:48;;;;;;;;;;;;;;;20.59;31.77;101133.03;5130265;28;1921;-46
2021/03/25 11:55:22;;;;;;;;;;;;;;;19.81;33.09;101133.69;5136833;28;830;-47
2021/03/25 11:57:48;;;;;;;;;;;;;;;19.23;34.12;101117.72;5135337;28;815;-54
2021/03/25 12:00:33;;;;;;;;;;;;;;;20.10;32.67;101127.38;5135156;28;890;-47
2021/03/25 12:02:59;;;;;;;;;;;;;;;20.68;31.56;101136.84;5139418;27;1864;-56
2021/03/25 12:05:24;;;;;;;;;;;;;;;20.25;32.32;101131.97;5139572;27;1333;-50
2021/03/25 12:07:59;;;;;;;;;;;;;;;20.15;32.50;101130.13;5140415;27;1062;-59
2021/03/25 12:10:24;;;;;;;;;;;;;;;19.26;34.49;101122.66;5140587;27;751;-58
2021/03/25 12:12:50;;;;;;;;;;;;;;;19.46;34.17;101119.00;5140923;27;1917;-50
2021/03/25 12:15:16;;;;;;;;;;;;;;;20.42;32.23;101120.47;5140090;27;819;-58
2021/03/25 12:17:49;;;;;;;;;;;;;;;20.68;31.69;101121.06;5140530;27;779;-62
2021/03/25 12:20:19;;;;;;;;;;;;;;;20.55;31.75;101121.72;5138954;27;875;-54
2021/03/25 12:22:45;;;;;;;;;;;;;;;19.91;32.80;101118.16;5139637;27;952;-50
2021/03/25 12:25:11;;;;;;;;;;;;;;;19.29;34.01;101130.41;5140460;27;929;-48
2021/03/25 12:27:36;;;;;;;;;;;;;;;20.27;32.51;101131.66;5140329;27;802;-48
2021/03/25 12:30:02;;;;;;;;;;;;;;;20.84;31.28;101129.19;5140061;27;770;-57
2021/03/25 12:32:28;;;;;;;;;;;;;;;20.51;31.75;101127.03;5140045;27;1913;-49
2021/03/25 12:34:53;;;;;;;;;;;;;;;20.32;32.19;101123.34;5140284;27;763;-52
2021/03/25 12:37:19;;;;;;;;;;;;;;;19.35;34.10;101128.44;5139462;27;956;-49
2021/03/25 12:39:44;;;;;;;;;;;;;;;20.06;32.66;101117.22;5140036;27;795;-50
2021/03/25 12:42:10;;;;;;;;;;;;;;;20.78;31.29;101122.91;5139909;27;751;-50
2021/03/25 12:44:36;;;;;;;;;;;;;;;20.46;31.94;101121.53;5139502;27;739;-58
2021/03/25 12:47:02;;;;;;;;;;;;;;;20.40;31.94;101119.97;5140018;27;755;-59
2021/03/25 12:49:28;;;;;;;;;;;;;;;19.68;33.28;101123.25;5139914;27;774;-56
2021/03/25 12:51:54;;;;;;;;;;;;;;;20.01;32.89;101118.09;5138646;27;1998;-54
2021/03/25 12:54:19;;;;;;;;;;;;;;;20.71;31.42;101118.84;5139869;27;771;-59
2021/03/25 12:56:45;;;;;;;;;;;;;;;20.32;32.27;101115.88;5136075;27;1567;-64
2021/03/25 12:59:14;;;;;;;;;;;;;;;20.31;32.09;101116.16;5129053;27;791;-56
2021/03/25 13:01:39;;;;;;;;;;;;;;;19.51;33.60;101117.31;5138067;27;837;-50
2021/03/25 13:04:05;;;;;;;;;;;;;;;19.61;33.44;101114.50;5139438;27;841;-54
2021/03/25 13:06:30;;;;;;;;;;;;;;;20.52;31.81;101117.63;5131777;27;1365;-54
2021/03/25 13:08:55;;;;;;;;;;;;;;;20.42;31.79;101123.25;5119016;28;759;-59
2021/03/25 13:11:25;;;;;;;;;;;;;;;20.30;32.08;101103.47;5118616;28;783;-49